Time;durP1;ratioP1;P1;durP2;ratioP2;P2;SDS_P1;SDS_P2;PMS_P1;PMS_P2;Temp;Humidity;BMP_temperature;BMP_pressure;BME280_temperature;BME280_humidity;BME280_pressure;Samples;Min_cycle;Max_cycle;Signal;HPM_P1;HPM_P2
2021/10/13 00:01:21;;;;;;;29.10;12.77;;;;;;;3.42;100.00;102405.53;5221736;28;20338;-72
2021/10/13 00:03:51;;;;;;;32.13;14.80;;;;;;;3.49;100.00;102400.75;5221961;28;20040;-76
2021/10/13 00:06:22;;;;;;;33.67;13.40;;;;;;;3.53;100.00;102405.81;5221263;28;20482;-72
2021/10/13 00:08:52;;;;;;;28.73;14.25;;;;;;;3.57;100.00;102410.03;5221828;28;20435;-73
2021/10/13 00:11:23;;;;;;;28.42;13.20;;;;;;;3.66;100.00;102398.03;5221979;28;20032;-73
2021/10/13 00:13:53;;;;;;;19.20;10.68;;;;;;;3.74;100.00;102394.97;5221793;28;20131;-73
2021/10/13 00:16:25;;;;;;;34.90;13.80;;;;;;;3.78;100.00;102399.19;5221765;28;20118;-75
2021/10/13 00:18:55;;;;;;;33.28;13.70;;;;;;;3.83;100.00;102399.78;5221761;28;20066;-74
2021/10/13 00:21:26;;;;;;;26.58;12.25;;;;;;;3.92;100.00;102393.09;5222414;28;20043;-73
2021/10/13 00:23:56;;;;;;;37.00;13.32;;;;;;;4.00;100.00;102393.53;5222037;28;20025;-72
2021/10/13 00:26:26;;;;;;;24.05;12.73;;;;;;;4.09;100.00;102399.19;5221581;28;20040;-72
2021/10/13 00:28:57;;;;;;;26.35;12.75;;;;;;;4.20;100.00;102409.19;5222038;28;20052;-72
2021/10/13 00:31:27;;;;;;;28.95;12.35;;;;;;;4.33;100.00;102399.59;5222106;28;20037;-71
2021/10/13 00:33:58;;;;;;;27.63;11.90;;;;;;;4.46;100.00;102406.84;5222117;28;20021;-72
2021/10/13 00:36:28;;;;;;;25.38;12.57;;;;;;;4.54;100.00;102409.91;5221728;28;20389;-72
2021/10/13 00:38:59;;;;;;;26.95;11.43;;;;;;;4.62;100.00;102411.19;5221388;28;20036;-73
2021/10/13 00:41:29;;;;;;;27.85;11.88;;;;;;;4.72;100.00;102400.88;5221769;28;20025;-73
2021/10/13 00:44:00;;;;;;;29.08;12.23;;;;;;;4.77;100.00;102397.91;5221642;28;20496;-72
2021/10/13 00:46:31;;;;;;;23.10;11.70;;;;;;;4.80;100.00;102397.75;5221902;28;20397;-73
2021/10/13 00:49:01;;;;;;;31.10;11.40;;;;;;;4.79;100.00;102388.91;5221317;28;20035;-73
2021/10/13 00:51:33;;;;;;;26.45;11.23;;;;;;;4.77;100.00;102384.63;5221604;28;20130;-73
2021/10/13 00:54:03;;;;;;;33.72;11.50;;;;;;;4.72;100.00;102376.94;5221692;28;20029;-73
2021/10/13 00:56:34;;;;;;;28.83;11.02;;;;;;;4.64;100.00;102373.88;5221649;28;20025;-72
2021/10/13 00:59:04;;;;;;;21.60;9.02;;;;;;;4.53;100.00;102377.19;5221158;28;20040;-73
2021/10/13 01:01:43;;;;;;;24.38;9.90;;;;;;;4.39;100.00;102385.94;5236624;28;20199;-73
2021/10/13 01:04:36;;;;;;;23.98;9.25;;;;;;;4.27;100.00;102396.44;5222340;28;20036;-73
2021/10/13 01:07:32;;;;;;;21.35;8.88;;;;;;;4.18;100.00;102391.63;5222217;28;20503;-74
2021/10/13 01:10:22;;;;;;;18.05;9.65;;;;;;;4.10;100.00;102384.94;5221679;28;20028;-74
2021/10/13 01:13:06;;;;;;;23.00;10.43;;;;;;;4.05;100.00;102396.78;5222436;28;20404;-74
2021/10/13 01:16:03;;;;;;;21.00;10.55;;;;;;;4.00;100.00;102394.38;5222280;28;20430;-73
2021/10/13 01:18:43;;;;;;;21.60;10.38;;;;;;;3.96;100.00;102399.94;5212099;28;20039;-73
2021/10/13 01:21:30;;;;;;;25.63;10.30;;;;;;;3.88;100.00;102409.19;5225468;28;20036;-73
2021/10/13 01:24:24;;;;;;;33.53;11.05;;;;;;;3.83;100.00;102407.75;5225667;28;20402;-74
2021/10/13 01:27:15;;;;;;;21.77;11.05;;;;;;;3.77;100.00;102414.25;5225392;28;20075;-73
2021/10/13 01:29:49;;;;;;;21.83;10.20;;;;;;;3.71;100.00;102419.00;5225426;28;20085;-73
2021/10/13 01:32:24;;;;;;;20.90;9.63;;;;;;;3.66;100.00;102418.41;5225448;28;20577;-73
2021/10/13 01:34:58;;;;;;;23.05;10.27;;;;;;;3.64;100.00;102419.34;5225063;28;20064;-74
2021/10/13 01:37:39;;;;;;;26.38;10.73;;;;;;;3.68;100.00;102414.75;5225090;28;20039;-74
2021/10/13 01:40:14;;;;;;;26.90;11.45;;;;;;;3.78;100.00;102421.28;5225005;28;20025;-75
2021/10/13 01:42:50;;;;;;;25.80;12.52;;;;;;;3.86;100.00;102416.38;5223636;28;20029;-74
2021/10/13 01:45:23;;;;;;;27.38;11.68;;;;;;;3.94;100.00;102420.44;5224753;28;20024;-75
2021/10/13 01:47:56;;;;;;;25.90;10.82;;;;;;;3.96;100.00;102419.38;5224999;28;20487;-73
2021/10/13 01:50:29;;;;;;;25.67;12.00;;;;;;;3.96;100.00;102421.19;5224694;28;20029;-75
2021/10/13 01:53:02;;;;;;;42.05;12.40;;;;;;;3.93;100.00;102418.72;5223614;28;20441;-75
2021/10/13 01:55:34;;;;;;;45.17;10.68;;;;;;;3.86;100.00;102420.84;5224603;28;20021;-73
2021/10/13 01:58:06;;;;;;;70.70;13.48;;;;;;;3.76;100.00;102407.19;5224622;28;20082;-74
2021/10/13 02:00:38;;;;;;;139.32;16.98;;;;;;;3.70;100.00;102415.50;5224463;28;20394;-75
2021/10/13 02:03:09;;;;;;;24.98;10.23;;;;;;;3.62;100.00;102421.25;5224691;28;20032;-75
2021/10/13 02:05:41;;;;;;;20.90;10.45;;;;;;;3.58;100.00;102410.88;5224791;28;20029;-74
2021/10/13 02:08:14;;;;;;;29.65;11.27;;;;;;;3.56;100.00;102408.28;5224558;28;20048;-73
2021/10/13 02:10:47;;;;;;;23.63;10.82;;;;;;;3.56;100.00;102416.25;5224677;28;20367;-75
2021/10/13 02:13:19;;;;;;;25.30;11.93;;;;;;;3.62;100.00;102418.59;5223133;28;20029;-74
2021/10/13 02:15:52;;;;;;;26.02;11.40;;;;;;;3.71;100.00;102417.22;5241167;28;20035;-75
2021/10/13 02:18:25;;;;;;;42.03;14.27;;;;;;;3.78;100.00;102413.31;5225102;28;20024;-73
2021/10/13 02:20:58;;;;;;;29.30;13.90;;;;;;;3.86;100.00;102420.84;5223939;28;20424;-75
2021/10/13 02:23:32;;;;;;;30.85;12.50;;;;;;;3.92;100.00;102417.88;5224125;28;20028;-74
2021/10/13 02:26:10;;;;;;;33.78;13.27;;;;;;;3.97;100.00;102425.56;5224317;28;20443;-72
2021/10/13 02:28:46;;;;;;;34.38;12.73;;;;;;;3.99;100.00;102429.84;5223457;28;20025;-73
2021/10/13 02:31:16;;;;;;;35.35;11.98;;;;;;;4.04;100.00;102427.78;5223752;28;20159;-73
2021/10/13 02:33:47;;;;;;;31.08;15.82;;;;;;;4.07;100.00;102426.78;5224009;28;20108;-73
2021/10/13 02:36:17;;;;;;;28.65;13.40;;;;;;;4.11;100.00;102423.84;5224272;28;20494;-73
2021/10/13 02:38:48;;;;;;;33.22;13.57;;;;;;;4.21;100.00;102433.94;5223887;28;20390;-74
2021/10/13 02:41:18;;;;;;;28.45;13.82;;;;;;;4.27;100.00;102430.97;5223986;28;20105;-73
2021/10/13 02:43:49;;;;;;;33.55;14.10;;;;;;;4.37;100.00;102424.19;5223674;28;20025;-74
2021/10/13 02:46:31;;;;;;;39.58;17.58;;;;;;;4.45;100.00;102431.72;5224028;28;20100;-73
2021/10/13 02:49:15;;;;;;;32.58;14.75;;;;;;;4.49;100.00;102436.75;5223450;28;20021;-73
2021/10/13 02:51:50;;;;;;;36.00;16.52;;;;;;;4.56;100.00;102443.41;5222673;28;20074;-73
2021/10/13 02:54:35;;;;;;;39.78;17.13;;;;;;;4.65;100.00;102440.25;5222275;28;20040;-74
2021/10/13 02:57:06;;;;;;;42.45;18.65;;;;;;;4.75;100.00;102440.56;5223639;28;20107;-76
2021/10/13 02:59:41;;;;;;;39.65;16.90;;;;;;;4.81;100.00;102439.34;5223551;28;20023;-74
2021/10/13 03:02:16;;;;;;;43.10;18.25;;;;;;;4.86;100.00;102427.47;5222006;28;20099;-74
2021/10/13 03:04:51;;;;;;;50.50;20.90;;;;;;;4.94;100.00;102433.22;5222867;28;20243;-74
2021/10/13 03:07:25;;;;;;;39.55;17.65;;;;;;;5.11;100.00;102426.03;5228726;28;20028;-73
2021/10/13 03:10:00;;;;;;;40.50;17.80;;;;;;;5.14;100.00;102436.50;5226655;28;20021;-74
2021/10/13 03:12:39;;;;;;;33.17;16.30;;;;;;;5.18;100.00;102433.56;5223288;28;20105;-74
2021/10/13 03:15:12;;;;;;;35.80;16.40;;;;;;;5.20;100.00;102436.97;5223214;28;20464;-74
2021/10/13 03:17:46;;;;;;;48.70;18.65;;;;;;;5.25;100.00;102431.38;5223114;28;20107;-74
2021/10/13 03:20:18;;;;;;;32.22;15.27;;;;;;;5.27;100.00;102432.16;5222823;28;20079;-75
2021/10/13 03:22:52;;;;;;;37.42;16.23;;;;;;;5.27;100.00;102432.16;5223010;28;20060;-74
2021/10/13 03:25:24;;;;;;;34.40;15.90;;;;;;;5.27;100.00;102432.16;5222685;28;20025;-75
2021/10/13 03:27:56;;;;;;;31.88;15.07;;;;;;;5.29;100.00;102432.06;5222935;28;20025;-74
2021/10/13 03:30:27;;;;;;;37.97;16.73;;;;;;;5.29;100.00;102432.91;5222840;28;20021;-75
2021/10/13 03:32:57;;;;;;;33.60;15.80;;;;;;;5.33;100.00;102442.41;5222943;28;20052;-74
2021/10/13 03:35:32;;;;;;;38.60;17.73;;;;;;;5.36;100.00;102449.34;5222801;28;20013;-74
2021/10/13 03:38:04;;;;;;;46.05;20.15;;;;;;;5.41;100.00;102447.25;5222523;28;20041;-74
2021/10/13 03:40:35;;;;;;;31.10;16.40;;;;;;;5.41;100.00;102445.44;5222160;28;20020;-76
2021/10/13 03:43:08;;;;;;;40.83;18.67;;;;;;;5.44;100.00;102447.94;5222433;28;20040;-75
2021/10/13 03:45:39;;;;;;;31.95;16.27;;;;;;;5.47;100.00;102449.53;5222309;28;20046;-75
2021/10/13 03:48:11;;;;;;;36.72;18.23;;;;;;;5.49;100.00;102458.31;5222260;28;20021;-75
2021/10/13 03:50:41;;;;;;;37.95;17.08;;;;;;;5.52;100.00;102457.25;5222198;28;20032;-75
2021/10/13 03:53:12;;;;;;;36.05;16.75;;;;;;;5.55;100.00;102459.72;5221161;28;20040;-74
2021/10/13 03:55:42;;;;;;;34.47;16.33;;;;;;;5.58;100.00;102456.91;5221009;28;20029;-74
2021/10/13 03:58:13;;;;;;;40.28;18.15;;;;;;;5.60;100.00;102454.97;5222541;28;20032;-73
2021/10/13 04:00:43;;;;;;;63.22;25.50;;;;;;;5.62;100.00;102450.41;5221867;28;20025;-73
2021/10/13 04:03:14;;;;;;;48.78;23.65;;;;;;;5.65;100.00;102458.22;5222232;28;20147;-73
2021/10/13 04:05:44;;;;;;;55.80;24.05;;;;;;;5.68;100.00;102466.03;5222351;28;20056;-74
2021/10/13 04:08:14;;;;;;;47.97;22.88;;;;;;;5.71;100.00;102463.16;5222165;28;20017;-75
2021/10/13 04:10:45;;;;;;;47.03;23.75;;;;;;;5.74;100.00;102465.63;5221938;28;20025;-74
2021/10/13 04:13:16;;;;;;;54.65;24.55;;;;;;;5.77;100.00;102467.22;5222005;28;20356;-76
2021/10/13 04:15:46;;;;;;;67.88;29.83;;;;;;;5.79;100.00;102468.88;5222258;28;20474;-74
2021/10/13 04:18:17;;;;;;;45.25;24.48;;;;;;;5.82;100.00;102476.66;5222687;28;20051;-75
2021/10/13 04:20:47;;;;;;;44.58;21.30;;;;;;;5.86;100.00;102475.50;5222689;28;20029;-74
2021/10/13 04:23:18;;;;;;;48.17;23.67;;;;;;;5.90;100.00;102478.84;5222091;28;20032;-74
2021/10/13 04:25:48;;;;;;;32.72;16.60;;;;;;;5.91;100.00;102483.22;5221708;28;20032;-75
2021/10/13 04:28:19;;;;;;;41.72;18.10;;;;;;;5.94;100.00;102475.94;5222398;28;20021;-74
2021/10/13 04:30:50;;;;;;;36.08;17.67;;;;;;;5.95;100.00;102472.31;5221655;28;20032;-73
2021/10/13 04:33:20;;;;;;;45.15;19.67;;;;;;;6.00;100.00;102481.81;5222280;28;20103;-74
2021/10/13 04:35:50;;;;;;;43.75;22.02;;;;;;;6.02;100.00;102467.44;5221861;28;20079;-74
2021/10/13 04:38:21;;;;;;;42.67;21.17;;;;;;;6.05;100.00;102474.41;5221585;28;20036;-74
2021/10/13 04:40:51;;;;;;;54.55;23.92;;;;;;;6.07;100.00;102473.31;5221265;28;20024;-72
2021/10/13 04:43:22;;;;;;;49.35;24.42;;;;;;;6.09;100.00;102466.09;5220643;28;20486;-75
2021/10/13 04:45:52;;;;;;;49.10;23.80;;;;;;;6.12;100.00;102468.56;5222103;28;20021;-74
2021/10/13 04:48:23;;;;;;;60.13;28.73;;;;;;;6.14;100.00;102468.47;5221682;28;20512;-74
2021/10/13 04:50:53;;;;;;;75.93;33.95;;;;;;;6.17;100.00;102473.59;5221238;28;20469;-75
2021/10/13 04:53:24;;;;;;;61.70;32.25;;;;;;;6.21;100.00;102477.78;5224827;28;20025;-73
2021/10/13 04:55:55;;;;;;;54.13;24.98;;;;;;;6.21;100.00;102473.31;5226079;28;20039;-74
2021/10/13 04:58:25;;;;;;;48.75;23.23;;;;;;;6.22;100.00;102474.16;5226202;28;20028;-73
2021/10/13 05:00:56;;;;;;;51.25;25.27;;;;;;;6.25;100.00;102457.97;5225838;28;20432;-73
2021/10/13 05:03:26;;;;;;;38.83;19.85;;;;;;;6.27;100.00;102463.22;5225324;28;20120;-74
2021/10/13 05:05:57;;;;;;;48.17;19.08;;;;;;;6.27;100.00;102464.06;5225922;28;20393;-75
2021/10/13 05:08:27;;;;;;;50.30;24.70;;;;;;;6.30;100.00;102466.53;5225701;28;20028;-74
2021/10/13 05:10:57;;;;;;;53.97;28.60;;;;;;;6.30;100.00;102463.88;5225552;28;20436;-74
2021/10/13 05:13:28;;;;;;;43.70;18.40;;;;;;;6.34;100.00;102469.88;5225618;28;20021;-75
2021/10/13 05:15:58;;;;;;;48.13;22.17;;;;;;;6.35;100.00;102474.25;5225375;28;20143;-75
2021/10/13 05:18:29;;;;;;;54.67;25.63;;;;;;;6.38;100.00;102477.56;5225520;28;20136;-75
2021/10/13 05:20:59;;;;;;;176.55;90.50;;;;;;;6.40;100.00;102469.47;5225423;28;20024;-75
2021/10/13 05:23:30;;;;;;;99.70;45.08;;;;;;;6.37;100.00;102467.84;5225422;28;20364;-74
2021/10/13 05:26:00;;;;;;;61.42;28.05;;;;;;;6.36;100.00;102471.47;5225865;28;20459;-74
2021/10/13 05:28:31;;;;;;;72.15;33.92;;;;;;;6.33;100.00;102470.84;5225022;28;20133;-74
2021/10/13 05:31:01;;;;;;;73.65;33.97;;;;;;;6.30;100.00;102471.00;5223662;28;20028;-74
2021/10/13 05:33:32;;;;;;;65.32;29.85;;;;;;;6.26;100.00;102478.34;5225635;28;20074;-74
2021/10/13 05:36:03;;;;;;;54.55;22.42;;;;;;;6.25;100.00;102486.44;5225311;28;20017;-75
2021/10/13 05:38:33;;;;;;;41.28;19.33;;;;;;;6.27;100.00;102487.19;5225110;28;20120;-74
2021/10/13 05:41:04;;;;;;;41.25;16.58;;;;;;;6.28;100.00;102499.59;5224669;28;20032;-75
2021/10/13 05:43:34;;;;;;;45.60;17.67;;;;;;;6.30;100.00;102495.00;5225249;28;20033;-74
2021/10/13 05:46:05;;;;;;;36.95;16.30;;;;;;;6.33;100.00;102497.47;5225346;28;20394;-75
2021/10/13 05:48:35;;;;;;;31.05;16.65;;;;;;;6.35;100.00;102498.22;5225160;28;20025;-74
2021/10/13 05:51:05;;;;;;;62.63;28.40;;;;;;;6.38;100.00;102500.72;5224756;28;20028;-75
2021/10/13 05:53:36;;;;;;;57.85;27.75;;;;;;;6.43;100.00;102510.13;5224740;28;20064;-74
2021/10/13 05:56:07;;;;;;;46.00;22.48;;;;;;;6.48;100.00;102520.50;5225232;28;20107;-73
2021/10/13 05:58:38;;;;;;;53.20;25.10;;;;;;;6.49;100.00;102519.53;5224802;28;20052;-74
2021/10/13 06:01:09;;;;;;;40.00;18.88;;;;;;;6.51;100.00;102522.09;5224253;28;20021;-74
2021/10/13 06:03:39;;;;;;;39.75;17.45;;;;;;;6.51;100.00;102525.59;5223202;28;20036;-74
2021/10/13 06:06:09;;;;;;;41.50;19.63;;;;;;;6.54;100.00;102528.09;5224630;28;20025;-74
2021/10/13 06:08:40;;;;;;;43.83;16.75;;;;;;;6.59;100.00;102519.78;5224072;28;20021;-73
2021/10/13 06:11:12;;;;;;;37.17;15.88;;;;;;;6.62;100.00;102528.44;5224259;28;20078;-73
2021/10/13 06:13:43;;;;;;;38.60;15.98;;;;;;;6.66;100.00;102539.75;5223022;28;20100;-74
2021/10/13 06:16:13;;;;;;;33.97;15.40;;;;;;;6.70;100.00;102543.94;5223870;28;20145;-74
2021/10/13 06:18:46;;;;;;;30.98;15.73;;;;;;;6.73;100.00;102544.63;5224492;28;20094;-73
2021/10/13 06:21:19;;;;;;;36.65;16.50;;;;;;;6.76;100.00;102551.53;5224016;28;20032;-73
2021/10/13 06:23:50;;;;;;;35.78;15.15;;;;;;;6.78;100.00;102552.31;5224251;28;20237;-74
2021/10/13 06:26:21;;;;;;;31.35;14.77;;;;;;;6.80;100.00;102550.41;5223773;28;20248;-74
2021/10/13 06:28:51;;;;;;;32.03;16.35;;;;;;;6.82;100.00;102547.63;5223604;28;20071;-74
2021/10/13 06:31:23;;;;;;;36.33;16.17;;;;;;;6.86;100.00;102551.81;5223183;28;20025;-73
2021/10/13 06:33:54;;;;;;;31.75;14.73;;;;;;;6.87;100.00;102551.69;5224118;28;20103;-75
2021/10/13 06:36:25;;;;;;;38.13;16.75;;;;;;;6.91;100.00;102558.53;5224380;28;20586;-74
2021/10/13 06:38:55;;;;;;;41.05;15.40;;;;;;;6.97;100.00;102551.94;5223753;28;20060;-75
2021/10/13 06:41:27;;;;;;;39.72;16.02;;;;;;;7.01;100.00;102553.47;5222570;28;20028;-75
2021/10/13 06:43:57;;;;;;;40.20;16.08;;;;;;;7.06;100.00;102567.34;5223863;28;20036;-74
2021/10/13 06:46:28;;;;;;;37.50;15.20;;;;;;;7.11;100.00;102559.91;5223631;28;20029;-72
2021/10/13 06:48:58;;;;;;;34.55;15.20;;;;;;;7.15;100.00;102557.88;5223314;28;20047;-71
2021/10/13 06:51:29;;;;;;;27.88;14.60;;;;;;;7.22;100.00;102556.50;5223560;28;20478;-71
2021/10/13 06:53:59;;;;;;;31.15;15.40;;;;;;;7.28;100.00;102558.78;5223369;28;20033;-72
2021/10/13 06:56:30;;;;;;;41.00;15.75;;;;;;;7.32;100.00;102562.94;5223407;28;20256;-72
2021/10/13 06:59:00;;;;;;;32.90;15.25;;;;;;;7.36;100.00;102559.09;5223048;28;20112;-72
2021/10/13 07:01:31;;;;;;;40.17;17.30;;;;;;;7.41;100.00;102567.66;5217746;28;20025;-72
2021/10/13 07:04:02;;;;;;;37.13;16.15;;;;;;;7.45;100.00;102571.84;5219559;28;20789;-71
2021/10/13 07:06:32;;;;;;;40.22;18.60;;;;;;;7.53;100.00;102579.34;5220698;28;20035;-73
2021/10/13 07:09:03;;;;;;;38.80;16.00;;;;;;;7.59;100.00;102580.75;5219646;28;20055;-72
2021/10/13 07:11:33;;;;;;;37.08;17.25;;;;;;;7.65;100.00;102569.63;5221012;28;20033;-72
2021/10/13 07:14:06;;;;;;;44.22;19.55;;;;;;;7.73;100.00;102584.19;5219620;28;20033;-73
2021/10/13 07:16:36;;;;;;;32.33;15.70;;;;;;;7.77;100.00;102591.00;5219942;28;20037;-72
2021/10/13 07:19:07;;;;;;;32.30;15.68;;;;;;;7.81;100.00;102585.47;5220340;28;20043;-73
2021/10/13 07:21:37;;;;;;;32.58;15.07;;;;;;;7.85;100.00;102584.28;5220341;28;20031;-73
2021/10/13 07:24:08;;;;;;;32.10;15.45;;;;;;;7.86;100.00;102586.84;5220306;28;20024;-73
2021/10/13 07:26:41;;;;;;;31.50;15.07;;;;;;;7.91;100.00;102586.53;5220273;28;20115;-73
2021/10/13 07:29:12;;;;;;;42.72;18.95;;;;;;;7.93;100.00;102593.50;5219925;28;20124;-73
2021/10/13 07:31:43;;;;;;;42.78;20.63;;;;;;;7.98;100.00;102594.03;5219775;28;20063;-73
2021/10/13 07:34:14;;;;;;;40.13;19.80;;;;;;;8.03;100.00;102596.34;5220148;28;20029;-73
2021/10/13 07:36:44;;;;;;;37.70;17.27;;;;;;;8.05;100.00;102600.66;5220488;28;20119;-73
2021/10/13 07:39:15;;;;;;;42.88;16.75;;;;;;;8.07;100.00;102594.31;5217949;28;20021;-73
2021/10/13 07:41:45;;;;;;;40.50;16.75;;;;;;;8.09;100.00;102595.09;5218044;28;20024;-73
2021/10/13 07:44:16;;;;;;;39.63;19.55;;;;;;;8.10;100.00;102607.50;5219592;28;20089;-73
2021/10/13 07:46:46;;;;;;;64.05;28.23;;;;;;;8.14;100.00;102596.47;5219848;28;20025;-73
2021/10/13 07:49:16;;;;;;;56.53;24.92;;;;;;;8.19;100.00;102601.50;5218302;28;20536;-73
2021/10/13 07:51:47;;;;;;;62.20;27.60;;;;;;;8.23;100.00;102597.63;5220332;28;20036;-73
2021/10/13 07:54:20;;;;;;;88.07;38.28;;;;;;;8.30;100.00;102599.78;5219352;28;20227;-73
2021/10/13 07:56:51;;;;;;;68.95;30.90;;;;;;;8.36;100.00;102598.50;5219977;28;20028;-73
2021/10/13 07:59:21;;;;;;;68.07;29.50;;;;;;;8.38;100.00;102593.03;5219704;28;20137;-73
2021/10/13 08:01:52;;;;;;;67.32;28.17;;;;;;;8.43;100.00;102609.63;5219265;28;20017;-73
2021/10/13 08:04:22;;;;;;;36.95;16.45;;;;;;;8.48;100.00;102603.00;5219749;28;20044;-72
2021/10/13 08:06:53;;;;;;;38.40;18.00;;;;;;;8.49;100.00;102596.69;5219413;28;20035;-73
2021/10/13 08:09:24;;;;;;;32.95;13.57;;;;;;;8.53;100.00;102598.19;5219356;28;20386;-72
2021/10/13 08:11:54;;;;;;;30.83;14.23;;;;;;;8.55;100.00;102593.56;5219175;28;20029;-73
2021/10/13 08:14:25;;;;;;;32.13;14.82;;;;;;;8.61;100.00;102602.97;5219697;28;20044;-73
2021/10/13 08:16:57;;;;;;;30.58;14.05;;;;;;;8.64;100.00;102601.91;5219508;28;20478;-72
2021/10/13 08:19:28;;;;;;;38.70;15.07;;;;;;;8.72;100.00;102602.19;5219403;28;20032;-72
2021/10/13 08:21:59;;;;;;;29.85;13.85;;;;;;;8.80;100.00;102608.69;5219562;28;20029;-72
2021/10/13 08:24:29;;;;;;;31.00;12.90;;;;;;;8.88;100.00;102607.25;5219184;28;20128;-72
2021/10/13 08:27:02;;;;;;;22.52;12.52;;;;;;;8.96;100.00;102612.91;5217639;28;20345;-72
2021/10/13 08:29:32;;;;;;;32.72;13.27;;;;;;;9.10;100.00;102607.41;5218977;28;20021;-73
2021/10/13 08:32:04;;;;;;;22.75;12.10;;;;;;;9.10;100.00;102610.09;5219688;28;20496;-75
2021/10/13 08:34:35;;;;;;;31.23;11.55;;;;;;;9.19;100.00;102605.88;5219694;28;20060;-72
2021/10/13 08:37:06;;;;;;;24.77;11.15;;;;;;;9.21;100.00;102601.25;5220178;28;20037;-72
2021/10/13 08:39:37;;;;;;;21.83;11.05;;;;;;;9.30;100.00;102611.28;5218469;28;20025;-73
2021/10/13 08:42:08;;;;;;;22.02;11.50;;;;;;;9.39;100.00;102610.59;5219023;28;20036;-73
2021/10/13 08:44:41;;;;;;;25.27;11.40;;;;;;;9.39;100.00;102613.28;5219330;28;20025;-73
2021/10/13 08:47:11;;;;;;;23.33;10.68;;;;;;;9.50;100.00;102613.31;5219324;28;20031;-72
2021/10/13 08:49:42;;;;;;;22.83;11.35;;;;;;;9.54;100.00;102612.09;5218961;28;20474;-72
2021/10/13 08:52:13;;;;;;;62.55;34.30;;;;;;;9.70;100.00;102609.09;5217207;28;20061;-73
2021/10/13 08:54:44;;;;;;;23.10;12.48;;;;;;;9.88;100.00;102605.97;5219323;28;20052;-72
2021/10/13 08:57:23;;;;;;;28.55;12.85;;;;;;;10.16;100.00;102604.69;5219044;28;20053;-73
2021/10/13 08:59:53;;;;;;;29.55;17.45;;;;;;;10.84;100.00;102607.25;5218825;28;20033;-73
2021/10/13 09:02:41;;;;;;;24.65;11.25;;;;;;;11.56;100.00;102611.13;5218701;28;20470;-73
2021/10/13 09:05:14;;;;;;;21.90;11.52;;;;;;;12.10;100.00;102610.97;5218575;28;20394;-73
2021/10/13 09:07:53;;;;;;;20.80;12.77;;;;;;;12.35;100.00;102595.34;5228179;28;20175;-74
2021/10/13 09:10:27;;;;;;;16.00;10.15;;;;;;;12.64;100.00;102603.53;5206332;28;20482;-73
2021/10/13 09:13:00;;;;;;;19.03;10.23;;;;;;;12.59;100.00;102608.47;5219731;28;20048;-73
2021/10/13 09:15:32;;;;;;;11.93;6.70;;;;;;;12.68;100.00;102613.03;5218751;28;20290;-73
2021/10/13 09:18:06;;;;;;;17.77;10.20;;;;;;;12.63;100.00;102613.44;5217938;28;20025;-73
2021/10/13 09:20:39;;;;;;;15.15;5.97;;;;;;;12.79;100.00;102614.75;5217643;28;20059;-73
2021/10/13 09:23:13;;;;;;;14.48;6.75;;;;;;;12.87;100.00;102621.16;5219056;28;20480;-72
2021/10/13 09:26:11;;;;;;;10.18;4.95;;;;;;;13.14;100.00;102620.50;5218392;28;20397;-72
2021/10/13 09:28:56;;;;;;;18.95;12.70;;;;;;;13.22;100.00;102622.53;5218889;28;20028;-73
2021/10/13 09:31:29;;;;;;;30.27;20.05;;;;;;;13.55;100.00;102615.84;5219027;28;20542;-73
2021/10/13 09:34:04;;;;;;;17.13;6.68;;;;;;;13.96;100.00;102625.47;5218914;28;20028;-73
2021/10/13 09:36:36;;;;;;;;;;;;;;;13.99;100.00;102635.97;5218545;28;20462;-72
2021/10/13 09:39:13;;;;;;;7.53;3.80;;;;;;;13.98;100.00;102634.28;5220961;28;19920;-73
2021/10/13 09:42:06;;;;;;;10.70;4.40;;;;;;;14.09;100.00;102630.53;5222213;28;20025;-73
2021/10/13 09:44:39;;;;;;;9.38;4.70;;;;;;;14.43;100.00;102630.03;5210102;28;20028;-72
2021/10/13 09:47:12;;;;;;;17.88;4.10;;;;;;;14.71;100.00;102630.94;5238285;28;20033;-72
2021/10/13 09:49:45;;;;;;;11.35;3.67;;;;;;;15.11;100.00;102635.94;5222789;28;20032;-72
2021/10/13 09:52:18;;;;;;;10.57;4.07;;;;;;;15.00;100.00;102638.84;5220951;28;20478;-72
2021/10/13 09:54:59;;;;;;;10.07;4.07;;;;;;;15.04;100.00;102642.94;5222423;28;20029;-72
2021/10/13 09:57:33;;;;;;;9.23;3.60;;;;;;;14.94;100.00;102637.59;5222363;28;20131;-72
2021/10/13 10:00:07;;;;;;;8.63;3.90;;;;;;;14.88;100.00;102646.31;5222352;28;20079;-73
2021/10/13 10:02:41;;;;;;;15.57;3.47;;;;;;;14.62;100.00;102640.78;5221908;28;20083;-72
2021/10/13 10:05:14;;;;;;;13.07;4.22;;;;;;;14.46;100.00;102641.38;5222483;28;20013;-72
2021/10/13 10:08:01;;;;;;;19.88;9.75;;;;;;;14.37;100.00;102644.13;5222012;28;20033;-72
2021/10/13 10:10:34;;;;;;;14.35;8.38;;;;;;;14.17;100.00;102652.28;5210516;28;20025;-72
2021/10/13 10:13:11;;;;;;;6.15;3.35;;;;;;;14.21;100.00;102653.69;5222454;28;20335;-72
2021/10/13 10:15:47;;;;;;;8.60;3.08;;;;;;;14.07;100.00;102667.63;5221996;28;20060;-72
2021/10/13 10:18:29;;;;;;;10.90;2.45;;;;;;;13.98;100.00;102655.00;5223377;28;20032;-73
2021/10/13 10:21:20;;;;;;;8.88;4.25;;;;;;;13.93;100.00;102662.69;5221217;28;20025;-73
2021/10/13 10:23:53;;;;;;;14.48;7.65;;;;;;;14.08;100.00;102669.34;5221991;28;20336;-72
2021/10/13 10:26:24;;;;;;;10.57;4.75;;;;;;;14.22;100.00;102668.03;5221185;28;20102;-72
2021/10/13 10:29:01;;;;;;;10.93;3.83;;;;;;;14.15;100.00;102669.59;5221740;28;20060;-72
2021/10/13 10:31:33;;;;;;;8.27;2.38;;;;;;;14.27;100.00;102671.16;5220691;28;20129;-72
2021/10/13 10:34:05;;;;;;;13.82;2.90;;;;;;;14.40;100.00;102657.31;5221722;28;20032;-73
2021/10/13 10:36:35;;;;;;;9.30;2.70;;;;;;;14.34;100.00;102672.25;5221023;28;20029;-72
2021/10/13 10:39:10;;;;;;;7.75;2.65;;;;;;;14.12;100.00;102670.75;5220401;28;20041;-72
2021/10/13 10:41:44;;;;;;;8.80;2.35;;;;;;;14.03;100.00;102663.53;5221320;28;20106;-72
2021/10/13 10:44:26;;;;;;;6.05;2.28;;;;;;;14.00;100.00;102656.53;5221731;28;20039;-72
2021/10/13 10:47:09;;;;;;;6.63;2.05;;;;;;;14.08;100.00;102660.38;5220708;28;20085;-72
2021/10/13 10:49:50;;;;;;;9.38;1.88;;;;;;;13.95;100.00;102660.69;5220761;28;20033;-74
2021/10/13 10:52:25;;;;;;;7.00;2.08;;;;;;;13.95;100.00;102666.94;5220967;28;20029;-74
2021/10/13 10:55:07;;;;;;;7.22;2.38;;;;;;;13.99;100.00;102665.66;5222007;28;20037;-74
2021/10/13 10:57:47;;;;;;;6.88;1.60;;;;;;;14.12;100.00;102672.59;5237075;28;20108;-74
2021/10/13 11:00:21;;;;;;;6.15;1.95;;;;;;;13.98;100.00;102668.50;5221104;28;20021;-74
2021/10/13 11:03:21;;;;;;;6.20;1.45;;;;;;;13.79;100.00;102674.75;5220111;28;20099;-73
2021/10/13 11:05:55;;;;;;;7.78;1.35;;;;;;;13.66;100.00;102672.38;5220875;28;20033;-74
2021/10/13 11:08:25;;;;;;;6.57;1.75;;;;;;;13.65;100.00;102673.34;5221909;28;20037;-74
2021/10/13 11:10:56;;;;;;;11.60;4.10;;;;;;;13.58;100.00;102682.16;5221759;28;20032;-74
2021/10/13 11:13:26;;;;;;;300.65;77.65;;;;;;;13.38;100.00;102673.19;5221279;28;20039;-74
2021/10/13 11:16:07;;;;;;;11.02;4.47;;;;;;;13.38;100.00;102676.75;5220905;28;20270;-73
2021/10/13 11:18:38;;;;;;;16.65;4.90;;;;;;;13.13;100.00;102671.84;5221607;28;20025;-73
2021/10/13 11:21:10;;;;;;;9.63;2.97;;;;;;;13.04;100.00;102670.81;5221074;28;20490;-74
2021/10/13 11:23:41;;;;;;;7.40;2.65;;;;;;;13.07;100.00;102675.94;5221184;28;20032;-72
2021/10/13 11:26:12;;;;;;;14.70;3.95;;;;;;;13.07;100.00;102677.78;5221085;28;20158;-72
2021/10/13 11:28:42;;;;;;;5.55;2.10;;;;;;;13.01;100.00;102676.50;5221180;28;20111;-72
2021/10/13 11:31:13;;;;;;;18.48;5.18;;;;;;;12.93;100.00;102677.19;5221541;28;20021;-72
2021/10/13 11:33:43;;;;;;;17.38;3.08;;;;;;;12.88;100.00;102679.44;5221501;28;20025;-72
2021/10/13 11:36:14;;;;;;;12.73;2.25;;;;;;;12.88;100.00;102671.34;5220791;28;20024;-72